Time;durP1;ratioP1;P1;durP2;ratioP2;P2;SDS_P1;SDS_P2;PMS_P1;PMS_P2;Temp;Humidity;BMP_temperature;BMP_pressure;BME280_temperature;BME280_humidity;BME280_pressure;Samples;Min_cycle;Max_cycle;Signal;HPM_P1;HPM_P2
2022/12/15 00:40:59;;;;;;;26.42;15.88;;;-2.90;99.90;;;;;;4976964;28;88725;-76
2022/12/15 00:43:28;;;;;;;29.13;16.42;;;-2.80;99.90;;;;;;4976752;28;89991;-76
2022/12/15 00:48:42;;;;;;;30.48;16.88;;;-2.60;99.90;;;;;;4977166;28;88719;-76
2022/12/15 00:51:10;;;;;;;27.27;15.38;;;-2.60;99.90;;;;;;4978589;28;88986;-76
2022/12/15 01:21:15;;;;;;;26.58;15.48;;;-2.40;99.90;;;;;;4979966;28;88420;-76
2022/12/15 01:23:42;;;;;;;27.92;14.90;;;-2.40;99.90;;;;;;4980007;28;88845;-76
2022/12/15 01:26:09;;;;;;;26.27;15.23;;;-2.50;99.90;;;;;;4980050;28;89496;-76
2022/12/15 01:28:36;;;;;;;25.23;15.68;;;-2.50;99.90;;;;;;4979786;28;88807;-76
2022/12/15 01:31:10;;;;;;;24.60;14.85;;;-2.60;99.90;;;;;;4961682;28;89425;-76
2022/12/15 01:33:38;;;;;;;25.60;15.10;;;-2.60;99.90;;;;;;4979877;28;88937;-76
2022/12/15 01:36:06;;;;;;;26.90;15.75;;;-2.60;99.90;;;;;;4961643;28;105262;-76
2022/12/15 01:38:32;;;;;;;29.98;16.48;;;-2.70;99.90;;;;;;4979353;28;88891;-76
2022/12/15 01:41:08;;;;;;;24.42;14.57;;;-2.70;99.90;;;;;;4978608;28;88546;-76
2022/12/15 01:43:38;;;;;;;26.80;15.73;;;-2.70;99.90;;;;;;4979602;28;88596;-76
2022/12/15 01:46:08;;;;;;;28.88;16.40;;;-2.80;99.90;;;;;;4979822;28;89158;-76
2022/12/15 01:48:35;;;;;;;30.25;16.15;;;-2.80;99.90;;;;;;4978235;28;88808;-76
2022/12/15 01:51:09;;;;;;;29.23;15.80;;;-2.80;99.90;;;;;;4978402;28;88534;-76
2022/12/15 01:53:46;;;;;;;;;;;-2.80;99.90;;;;;;4961978;28;91547;-76
2022/12/15 01:56:17;;;;;;;26.73;14.25;;;-2.90;99.90;;;;;;4964306;28;93841;-76
2022/12/15 01:58:46;;;;;;;26.42;15.20;;;-2.90;99.90;;;;;;4979714;28;89078;-76
2022/12/15 02:01:13;;;;;;;29.85;15.38;;;-2.90;99.90;;;;;;4978857;28;88463;-76
2022/12/15 02:03:42;;;;;;;23.77;14.45;;;-3.00;99.90;;;;;;4977776;28;89910;-76
2022/12/15 02:06:10;;;;;;;25.73;15.32;;;-2.90;99.90;;;;;;4977718;28;91999;-76
2022/12/15 02:08:37;;;;;;;26.10;15.48;;;-3.00;99.90;;;;;;4977886;28;89203;-76
2022/12/15 02:11:09;;;;;;;25.45;14.95;;;-3.00;99.90;;;;;;4977940;28;88536;-76
2022/12/15 02:14:04;;;;;;;27.02;15.07;;;-3.00;99.90;;;;;;4977615;28;90079;-76
2022/12/15 02:16:36;;;;;;;27.23;15.95;;;-3.00;99.90;;;;;;4978971;28;89514;-76
2022/12/15 02:19:24;;;;;;;26.15;15.10;;;-3.00;99.90;;;;;;4977595;28;90416;-76
2022/12/15 02:22:15;;;;;;;25.25;15.43;;;-2.90;99.90;;;;;;4979382;28;88482;-76
2022/12/15 02:24:55;;;;;;;27.80;14.93;;;-2.90;99.90;;;;;;4978860;28;88935;-76
2022/12/15 02:27:25;;;;;;;25.25;14.77;;;-2.90;99.90;;;;;;4978536;28;92947;-76
2022/12/15 02:30:33;;;;;;;28.05;14.93;;;-2.80;99.90;;;;;;4978485;28;89708;-76
2022/12/15 02:33:22;;;;;;;26.45;16.45;;;-2.80;99.90;;;;;;4940611;28;91207;-76
2022/12/15 02:35:56;;;;;;;24.33;14.52;;;-2.80;99.90;;;;;;4978628;28;89054;-76
2022/12/15 02:38:29;;;;;;;29.10;15.63;;;-2.80;99.90;;;;;;4977053;28;91062;-76
2022/12/15 02:40:58;;;;;;;23.35;14.23;;;-2.80;99.90;;;;;;4978541;28;88543;-76
2022/12/15 02:43:26;;;;;;;25.23;15.05;;;-2.80;99.90;;;;;;4978495;28;88441;-76
2022/12/15 02:46:49;;;;;;;25.23;15.55;;;-2.90;99.90;;;;;;4978562;28;88744;-76
2022/12/15 02:49:47;;;;;;;25.70;15.45;;;-2.90;99.90;;;;;;4946263;28;91892;-76
2022/12/15 02:52:39;;;;;;;25.10;15.13;;;-2.90;99.90;;;;;;4978570;28;89104;-76
2022/12/15 02:55:18;;;;;;;25.50;14.55;;;-2.90;99.90;;;;;;4960856;28;91124;-76
2022/12/15 02:58:00;;;;;;;26.70;14.48;;;-3.00;99.90;;;;;;4978186;28;89679;-76
2022/12/15 03:00:32;;;;;;;28.30;14.85;;;-3.00;99.90;;;;;;4976540;28;92175;-76
2022/12/15 03:02:59;;;;;;;27.27;15.95;;;-3.00;99.90;;;;;;4978516;28;88918;-76
2022/12/15 03:05:27;;;;;;;24.02;13.88;;;-3.00;99.90;;;;;;4976836;28;88553;-76
2022/12/15 03:07:53;;;;;;;25.27;14.80;;;-3.00;99.90;;;;;;4977188;28;88611;-76
2022/12/15 03:10:25;;;;;;;25.55;15.73;;;-3.00;99.90;;;;;;4978351;28;89510;-76
2022/12/15 03:12:53;;;;;;;23.23;14.65;;;-3.00;99.90;;;;;;4975844;28;92134;-76
2022/12/15 03:15:20;;;;;;;25.73;14.40;;;-3.00;99.90;;;;;;4978417;28;88486;-76
2022/12/15 03:17:47;;;;;;;23.27;14.90;;;-3.00;99.90;;;;;;4960629;28;89062;-76
2022/12/15 03:20:14;;;;;;;24.45;14.85;;;-3.00;99.90;;;;;;4977088;28;88538;-76
2022/12/15 03:22:41;;;;;;;26.75;14.50;;;-3.00;99.90;;;;;;4976430;28;89005;-76
2022/12/15 03:25:08;;;;;;;23.10;14.07;;;-3.00;99.90;;;;;;4978145;28;88539;-76
2022/12/15 03:27:36;;;;;;;22.90;14.68;;;-3.00;99.90;;;;;;4976431;28;89151;-76
2022/12/15 03:30:04;;;;;;;22.33;14.80;;;-3.00;99.90;;;;;;4977668;28;89310;-76
2022/12/15 03:32:31;;;;;;;24.13;14.93;;;-3.00;99.90;;;;;;4960058;28;91799;-76
2022/12/15 03:34:59;;;;;;;24.52;14.90;;;-3.00;99.90;;;;;;4977923;28;88668;-76
2022/12/15 03:37:27;;;;;;;26.90;15.38;;;-3.00;99.90;;;;;;4977462;28;98712;-76
2022/12/15 03:39:54;;;;;;;22.83;14.98;;;-3.00;99.90;;;;;;4977758;28;88474;-76
2022/12/15 03:45:26;;;;;;;28.80;13.98;;;-2.90;99.90;;;;;;4936096;28;91461;-76
2022/12/15 03:47:54;;;;;;;24.58;13.65;;;-3.00;99.90;;;;;;4969574;28;89318;-76
2022/12/15 03:50:24;;;;;;;24.38;14.13;;;-2.90;99.90;;;;;;4976243;28;92060;-76
2022/12/15 03:52:52;;;;;;;22.38;13.93;;;-3.00;99.90;;;;;;4975986;28;89064;-76
2022/12/15 03:55:20;;;;;;;25.92;13.70;;;-2.90;99.90;;;;;;4960207;28;91276;-76
2022/12/15 03:57:47;;;;;;;24.70;13.48;;;-3.00;99.90;;;;;;4976036;28;91332;-76
2022/12/15 04:00:16;;;;;;;22.45;13.63;;;-3.00;99.90;;;;;;4959440;28;105666;-76
2022/12/15 04:02:45;;;;;;;21.88;13.25;;;-3.00;99.90;;;;;;4977223;28;88886;-76
2022/12/15 04:05:24;;;;;;;21.27;13.02;;;-3.00;99.90;;;;;;4960020;28;89243;-76
2022/12/15 04:07:56;;;;;;;26.92;14.35;;;-2.90;99.90;;;;;;4975820;28;91504;-76
2022/12/15 04:10:25;;;;;;;22.83;13.40;;;-3.00;99.90;;;;;;4959883;28;91614;-76
2022/12/15 04:13:09;;;;;;;22.77;14.15;;;-3.00;99.90;;;;;;4977360;28;89060;-76
2022/12/15 04:15:38;;;;;;;25.92;13.98;;;-2.90;99.90;;;;;;4977301;28;88613;-76
2022/12/15 04:18:08;;;;;;;22.63;13.32;;;-2.90;99.90;;;;;;4977258;28;88914;-76
2022/12/15 04:20:36;;;;;;;22.45;13.32;;;-2.90;99.90;;;;;;4977263;28;88477;-76
2022/12/15 04:23:06;;;;;;;21.00;13.02;;;-2.90;99.90;;;;;;4976900;28;101520;-76
2022/12/15 05:32:22;;;;;;;17.25;11.13;;;-2.90;99.90;;;;;;4976488;28;89569;-76
2022/12/15 05:34:49;;;;;;;19.75;11.60;;;-2.90;99.90;;;;;;4974847;28;89546;-76
2022/12/15 05:37:16;;;;;;;18.10;11.27;;;-2.90;99.90;;;;;;4978603;28;88500;-76
2022/12/15 05:39:43;;;;;;;19.13;12.05;;;-2.90;99.90;;;;;;4978271;28;91634;-76
2022/12/15 05:42:10;;;;;;;16.63;11.30;;;-2.80;99.90;;;;;;4979410;28;88507;-76
2022/12/15 05:44:37;;;;;;;18.98;11.50;;;-2.80;99.90;;;;;;4978188;28;100884;-76
2022/12/15 05:47:04;;;;;;;17.35;11.68;;;-2.80;99.90;;;;;;4961825;28;91796;-76
2022/12/15 05:49:32;;;;;;;19.30;12.73;;;-2.80;99.90;;;;;;4979467;28;88591;-76
2022/12/15 05:51:59;;;;;;;19.70;11.52;;;-2.80;99.90;;;;;;4961810;28;90887;-76
2022/12/15 05:54:26;;;;;;;21.17;11.48;;;-2.80;99.90;;;;;;4979803;28;88930;-76
2022/12/15 05:56:52;;;;;;;20.48;12.25;;;-2.70;99.90;;;;;;4979356;28;89329;-76
2022/12/15 05:59:19;;;;;;;18.83;11.50;;;-2.70;99.90;;;;;;4979263;28;89056;-76
2022/12/15 06:01:46;;;;;;;16.60;11.63;;;-2.70;99.90;;;;;;4978220;28;88610;-76
2022/12/15 06:04:13;;;;;;;21.65;11.80;;;-2.70;99.90;;;;;;4979465;28;88976;-76
2022/12/15 06:06:41;;;;;;;19.95;13.52;;;-2.70;99.90;;;;;;4960968;28;108550;-76
2022/12/15 06:09:08;;;;;;;30.50;19.48;;;-2.70;99.90;;;;;;4979097;28;89034;-76
2022/12/15 06:11:36;;;;;;;26.98;19.10;;;-2.60;99.90;;;;;;4977904;28;89649;-76
2022/12/15 06:14:03;;;;;;;20.00;10.73;;;-2.60;99.90;;;;;;4978955;28;88742;-76
2022/12/15 06:16:31;;;;;;;17.52;12.45;;;-2.60;99.90;;;;;;4977706;28;92195;-76
2022/12/15 06:19:01;;;;;;;19.60;11.02;;;-2.60;99.90;;;;;;4977667;28;88955;-76
2022/12/15 06:21:32;;;;;;;19.73;12.48;;;-2.60;99.90;;;;;;4977797;28;88475;-76
2022/12/15 06:23:59;;;;;;;20.58;12.88;;;-2.60;99.90;;;;;;4977137;28;92043;-76
2022/12/15 06:26:32;;;;;;;23.80;11.90;;;-2.70;99.90;;;;;;4961315;28;95844;-76
2022/12/15 06:29:01;;;;;;;21.80;12.43;;;-2.70;99.90;;;;;;4978806;28;88715;-76
2022/12/15 06:31:29;;;;;;;19.35;11.45;;;-2.60;99.90;;;;;;4977367;28;88497;-76
2022/12/15 06:33:57;;;;;;;23.92;15.23;;;-2.70;99.90;;;;;;4978471;28;88869;-76
2022/12/15 06:36:28;;;;;;;19.77;11.85;;;-2.60;99.90;;;;;;4979049;28;89231;-76
2022/12/15 06:38:57;;;;;;;17.20;10.60;;;-2.60;99.90;;;;;;4977223;28;91439;-76
2022/12/15 06:41:24;;;;;;;17.95;10.02;;;-2.70;99.90;;;;;;4977698;28;88535;-76
2022/12/15 06:43:54;;;;;;;19.65;12.20;;;-2.60;99.90;;;;;;4978718;28;89214;-76
2022/12/15 06:46:22;;;;;;;20.08;12.05;;;-2.60;99.90;;;;;;4977269;28;88429;-76
2022/12/15 06:48:50;;;;;;;18.85;11.27;;;-2.60;99.90;;;;;;4976647;28;99793;-76
2022/12/15 06:51:17;;;;;;;15.00;10.48;;;-2.60;99.90;;;;;;4960689;28;91016;-76
2022/12/15 06:53:47;;;;;;;17.63;11.85;;;-2.60;99.90;;;;;;4960850;28;91164;-76
2022/12/15 06:56:20;;;;;;;18.60;11.35;;;-2.60;99.90;;;;;;4977076;28;89472;-76
2022/12/15 06:58:52;;;;;;;15.05;9.98;;;-2.60;99.90;;;;;;4977629;28;88913;-76
2022/12/15 07:01:21;;;;;;;19.65;11.73;;;-2.60;99.90;;;;;;4978268;28;88754;-76
2022/12/15 07:03:49;;;;;;;18.65;10.93;;;-2.60;99.90;;;;;;4977005;28;88577;-76
2022/12/15 07:06:16;;;;;;;17.45;10.40;;;-2.60;99.90;;;;;;4978385;28;89377;-76
2022/12/15 07:08:47;;;;;;;19.15;10.05;;;-2.60;99.90;;;;;;4976846;28;88923;-76
2022/12/15 07:11:14;;;;;;;18.20;12.38;;;-2.60;99.90;;;;;;4977101;28;88507;-76
2022/12/15 07:13:40;;;;;;;17.63;10.75;;;-2.60;99.90;;;;;;4976691;28;89588;-76
2022/12/15 07:16:10;;;;;;;19.83;12.27;;;-2.50;99.90;;;;;;4960353;28;92173;-76
2022/12/15 07:18:37;;;;;;;14.27;9.98;;;-2.50;99.90;;;;;;4978162;28;89014;-76
2022/12/15 07:21:07;;;;;;;17.98;11.65;;;-2.50;99.90;;;;;;4977809;28;88548;-76
2022/12/15 07:23:35;;;;;;;14.88;9.43;;;-2.50;99.90;;;;;;4976932;28;88939;-75
2022/12/15 07:26:19;;;;;;;15.95;10.57;;;-2.50;99.90;;;;;;4978820;28;88703;-75
2022/12/15 07:28:46;;;;;;;19.67;10.60;;;-2.40;99.90;;;;;;4976265;28;100452;-75
2022/12/15 07:31:14;;;;;;;18.92;10.23;;;-2.40;99.90;;;;;;4977639;28;89481;-75
2022/12/15 07:33:41;;;;;;;14.98;10.48;;;-2.40;99.90;;;;;;4960239;28;90565;-75
2022/12/15 07:36:08;;;;;;;21.02;11.35;;;-2.40;99.90;;;;;;4959995;28;92733;-75
2022/12/15 07:38:36;;;;;;;19.40;11.45;;;-2.40;99.90;;;;;;4977606;28;89071;-75
2022/12/15 07:41:05;;;;;;;15.55;10.02;;;-2.40;99.90;;;;;;4977616;28;88678;-75
2022/12/15 07:43:33;;;;;;;13.63;8.65;;;-2.30;99.90;;;;;;4976410;28;88718;-75
2022/12/15 07:46:01;;;;;;;19.23;10.95;;;-2.30;99.90;;;;;;4977277;28;88517;-75
2022/12/15 07:48:28;;;;;;;20.52;10.68;;;-2.30;99.90;;;;;;4977785;28;88461;-75
2022/12/15 07:50:58;;;;;;;17.83;10.52;;;-2.30;99.90;;;;;;4977656;28;88451;-75
2022/12/15 07:53:34;;;;;;;16.27;10.18;;;-2.20;99.90;;;;;;4976589;28;88916;-75
2022/12/15 07:56:03;;;;;;;16.38;10.45;;;-2.20;99.90;;;;;;4977779;28;89239;-75
2022/12/15 07:58:34;;;;;;;15.32;9.88;;;-2.20;99.90;;;;;;4975892;28;90607;-75
2022/12/15 08:01:04;;;;;;;16.38;10.27;;;-2.20;99.90;;;;;;4960537;28;90904;-76
2022/12/15 08:03:31;;;;;;;24.75;16.42;;;-2.20;99.90;;;;;;4975914;28;92224;-76
2022/12/15 08:06:10;;;;;;;34.08;21.52;;;-2.10;99.90;;;;;;4960180;28;89486;-75
2022/12/15 08:08:37;;;;;;;16.95;10.68;;;-2.10;99.90;;;;;;4977411;28;88651;-75
2022/12/15 08:11:09;;;;;;;30.00;21.67;;;-2.10;99.90;;;;;;4976334;28;88505;-76
2022/12/15 08:13:38;;;;;;;16.52;11.95;;;-2.00;99.90;;;;;;4977343;28;88898;-76
2022/12/15 08:16:25;;;;;;;15.32;10.38;;;-2.00;99.90;;;;;;4976140;28;89532;-76
2022/12/15 08:18:52;;;;;;;16.10;10.38;;;-2.00;99.90;;;;;;4975180;28;91498;-75
2022/12/15 08:21:19;;;;;;;13.82;10.20;;;-1.90;99.90;;;;;;4977209;28;88488;-76
2022/12/15 08:23:46;;;;;;;14.13;10.25;;;-1.90;99.90;;;;;;4975675;28;90586;-76
2022/12/15 08:26:16;;;;;;;18.13;11.45;;;-1.80;99.90;;;;;;4943341;28;91995;-75
2022/12/15 08:28:44;;;;;;;18.50;11.10;;;-1.70;99.90;;;;;;4976568;28;101812;-76
2022/12/15 08:31:17;;;;;;;15.68;10.82;;;-1.70;99.90;;;;;;4976450;28;88500;-76
2022/12/15 08:33:45;;;;;;;15.43;11.15;;;-1.60;99.90;;;;;;4977332;28;88829;-76
2022/12/15 08:36:14;;;;;;;18.48;11.73;;;-1.50;99.90;;;;;;4975378;28;89470;-76
2022/12/15 08:38:43;;;;;;;19.25;11.52;;;-1.40;99.90;;;;;;4975701;28;91561;-76
2022/12/15 08:41:12;;;;;;;15.73;9.45;;;-1.30;99.90;;;;;;4975347;28;91056;-76
2022/12/15 08:43:40;;;;;;;16.42;9.55;;;-1.20;99.90;;;;;;4977798;28;88876;-76
2022/12/15 08:46:15;;;;;;;16.67;10.15;;;-1.00;99.90;;;;;;4978203;28;88232;-76
2022/12/15 08:48:43;;;;;;;13.88;10.25;;;-1.00;99.90;;;;;;4975611;28;89465;-76
2022/12/15 08:51:10;;;;;;;16.40;9.80;;;-0.90;99.90;;;;;;4977015;28;88992;-76
2022/12/15 08:53:37;;;;;;;13.90;9.60;;;-0.90;99.90;;;;;;4975331;28;102152;-76
2022/12/15 08:56:07;;;;;;;12.45;9.40;;;-0.90;99.90;;;;;;4977616;28;89466;-76
2022/12/15 08:58:35;;;;;;;14.88;10.65;;;-0.90;99.90;;;;;;4977389;28;88833;-76
2022/12/15 09:01:07;;;;;;;11.98;9.45;;;-0.90;99.90;;;;;;4976869;28;88796;-76
2022/12/15 09:03:35;;;;;;;14.25;9.80;;;-0.90;99.90;;;;;;4976221;28;90077;-76
2022/12/15 09:06:10;;;;;;;15.23;9.65;;;-0.90;99.90;;;;;;4976038;28;90101;-75
2022/12/15 09:08:37;;;;;;;19.15;10.50;;;-0.80;99.90;;;;;;4977438;28;87911;-76
2022/12/15 09:11:04;;;;;;;21.10;10.50;;;-0.80;99.90;;;;;;4977547;28;88586;-76
2022/12/15 09:13:31;;;;;;;115.88;53.78;;;-0.70;99.90;;;;;;4979730;28;88905;-76
2022/12/15 09:16:12;;;;;;;45.38;24.25;;;-0.60;99.90;;;;;;4978922;28;89347;-77
2022/12/15 09:18:42;;;;;;;19.83;14.13;;;-0.60;99.90;;;;;;4979895;28;89041;-77
2022/12/15 09:21:10;;;;;;;14.05;9.77;;;-0.50;99.90;;;;;;4980205;28;88428;-77
2022/12/15 09:23:38;;;;;;;18.80;11.00;;;-0.50;99.90;;;;;;4962527;28;104918;-77
2022/12/15 09:26:13;;;;;;;16.38;10.93;;;-0.40;99.90;;;;;;4979897;28;89288;-77
2022/12/15 09:28:41;;;;;;;16.50;10.45;;;-0.30;99.90;;;;;;4978375;28;91588;-77
2022/12/15 09:31:14;;;;;;;17.23;10.82;;;-0.30;99.90;;;;;;4978230;28;88632;-77
2022/12/15 09:33:42;;;;;;;16.63;10.95;;;-0.20;99.90;;;;;;4978276;28;91402;-77
2022/12/15 09:36:11;;;;;;;8.88;6.72;;;-0.10;99.90;;;;;;4979174;28;89169;-76
2022/12/15 09:38:40;;;;;;;14.60;10.48;;;0.00;99.90;;;;;;4978943;28;88689;-76
2022/12/15 09:41:16;;;;;;;15.70;10.57;;;0.00;99.90;;;;;;4979624;28;88683;-76
2022/12/15 09:43:55;;;;;;;12.23;9.60;;;0.10;99.90;;;;;;4979359;28;90204;-76
2022/12/15 09:46:40;;;;;;;16.42;10.32;;;0.20;99.90;;;;;;4980151;28;90627;-76
2022/12/15 09:49:21;;;;;;;13.48;10.75;;;0.30;99.90;;;;;;4978346;28;89376;-76
2022/12/15 09:52:12;;;;;;;14.20;10.38;;;0.40;99.90;;;;;;4979692;28;88462;-76
2022/12/15 09:54:42;;;;;;;13.73;9.63;;;0.50;99.90;;;;;;4979235;28;88771;-76
2022/12/15 09:57:20;;;;;;;17.42;10.80;;;0.50;99.90;;;;;;4980520;28;88892;-76
2022/12/15 10:00:28;;;;;;;14.95;10.32;;;0.60;99.90;;;;;;4978336;28;88529;-75
2022/12/15 10:03:26;;;;;;;14.70;10.60;;;0.70;99.90;;;;;;4978211;28;91217;-76
2022/12/15 10:05:56;;;;;;;15.30;10.18;;;0.80;99.90;;;;;;4979420;28;89355;-76
2022/12/15 10:09:08;;;;;;;12.85;9.07;;;0.90;99.90;;;;;;4963897;28;91944;-76
2022/12/15 10:11:42;;;;;;;15.65;10.32;;;1.00;99.90;;;;;;4961742;28;92478;-76
2022/12/15 10:14:18;;;;;;;18.97;10.10;;;1.20;99.90;;;;;;4977636;28;91146;-76
2022/12/15 10:16:55;;;;;;;14.77;9.65;;;1.30;99.90;;;;;;4979075;28;88865;-76
2022/12/15 10:19:38;;;;;;;13.68;9.90;;;1.40;99.90;;;;;;4979001;28;88608;-76
2022/12/15 10:22:12;;;;;;;15.68;10.45;;;1.50;99.90;;;;;;4978138;28;89343;-76
2022/12/15 10:24:39;;;;;;;15.25;9.85;;;1.60;99.90;;;;;;4977624;28;89202;-76
2022/12/15 10:27:33;;;;;;;13.15;9.70;;;1.60;99.90;;;;;;4965055;28;88629;-76
2022/12/15 10:30:03;;;;;;;14.38;9.35;;;1.70;99.90;;;;;;4978383;28;90169;-76
2022/12/15 10:32:52;;;;;;;12.80;9.57;;;1.70;99.90;;;;;;4978114;28;88035;-75
2022/12/15 10:35:34;;;;;;;14.55;10.18;;;1.70;99.90;;;;;;4978019;28;91154;-75
2022/12/15 10:38:20;;;;;;;15.27;10.23;;;1.70;99.90;;;;;;4977111;28;92215;-76
2022/12/15 10:40:55;;;;;;;13.60;10.23;;;1.70;99.90;;;;;;4977153;28;91859;-76
2022/12/15 10:43:35;;;;;;;15.05;10.23;;;1.80;99.90;;;;;;4978742;28;88915;-76
2022/12/15 10:46:06;;;;;;;13.10;9.45;;;1.90;99.90;;;;;;4977301;28;91126;-76
2022/12/15 10:48:33;;;;;;;12.90;8.65;;;1.90;99.90;;;;;;4977822;28;88728;-76
2022/12/15 10:51:17;;;;;;;13.18;9.20;;;1.90;99.90;;;;;;4979281;28;88435;-76
2022/12/15 10:53:47;;;;;;;;;;;2.00;99.90;;;;;;4978375;28;88146;-76
2022/12/15 10:56:28;;;;;;;23.42;12.60;;;2.00;99.90;;;;;;4979627;28;88424;-76
2022/12/15 10:59:23;;;;;;;13.48;11.38;;;2.00;99.90;;;;;;4963811;28;91695;-76
2022/12/15 11:01:51;;;;;;;13.35;10.15;;;2.00;99.90;;;;;;4978301;28;89448;-76
2022/12/15 11:04:29;;;;;;;15.77;10.60;;;2.10;99.90;;;;;;4976955;28;89095;-76
2022/12/15 11:07:02;;;;;;;13.57;9.32;;;2.20;99.90;;;;;;4978530;28;88517;-76
2022/12/15 11:09:34;;;;;;;14.00;10.10;;;2.20;99.90;;;;;;4977748;28;91161;-76
2022/12/15 11:12:58;;;;;;;16.05;9.30;;;2.30;99.90;;;;;;4978303;28;89479;-76
2022/12/15 11:15:49;;;;;;;13.63;9.27;;;2.30;99.90;;;;;;4973410;28;88869;-76
2022/12/15 11:18:40;;;;;;;11.57;9.10;;;2.40;99.90;;;;;;4942724;28;90946;-76
2022/12/15 11:21:23;;;;;;;14.23;9.55;;;2.50;99.90;;;;;;4977366;28;91810;-76
2022/12/15 11:23:59;;;;;;;12.20;8.70;;;2.50;99.90;;;;;;4979059;28;88691;-76
2022/12/15 11:26:35;;;;;;;12.90;8.95;;;2.50;99.90;;;;;;4978915;28;88097;-76
2022/12/15 11:29:15;;;;;;;14.55;9.52;;;2.60;99.90;;;;;;4979026;28;88262;-76
2022/12/15 11:31:44;;;;;;;14.70;9.48;;;2.70;99.90;;;;;;4977432;28;89597;-76
2022/12/15 11:34:38;;;;;;;15.35;8.88;;;2.70;99.90;;;;;;4976561;28;89278;-76
2022/12/15 11:37:31;;;;;;;12.15;9.05;;;2.70;99.90;;;;;;4976456;28;88211;-76
2022/12/15 11:40:38;;;;;;;13.38;9.18;;;2.80;99.90;;;;;;4977317;28;91132;-76
2022/12/15 11:43:25;;;;;;;12.30;9.68;;;2.90;99.90;;;;;;4975051;28;98999;-76
2022/12/15 11:46:07;;;;;;;14.13;9.77;;;2.90;99.90;;;;;;4978474;28;88670;-76
2022/12/15 11:48:42;;;;;;;14.23;9.18;;;3.00;99.90;;;;;;4977576;28;88015;-76
2022/12/15 11:51:20;;;;;;;11.95;9.23;;;3.10;99.90;;;;;;4978973;28;88456;-76
2022/12/15 11:54:06;;;;;;;13.23;9.32;;;3.20;99.90;;;;;;4976908;28;91479;-76
2022/12/15 11:56:44;;;;;;;11.35;9.00;;;3.20;99.90;;;;;;4978254;28;88696;-76
2022/12/15 11:59:51;;;;;;;15.43;9.43;;;3.30;99.90;;;;;;4976823;28;89541;-76
2022/12/15 12:02:38;;;;;;;13.25;8.68;;;3.30;99.90;;;;;;4969489;28;91130;-76
2022/12/15 12:05:35;;;;;;;11.80;8.77;;;3.30;99.90;;;;;;4977034;28;89306;-76
2022/12/15 12:08:13;;;;;;;17.75;9.18;;;3.30;99.90;;;;;;4971199;28;91172;-76
2022/12/15 12:11:03;;;;;;;12.32;9.23;;;3.30;99.90;;;;;;4978304;28;87955;-76
2022/12/15 12:14:00;;;;;;;13.63;8.77;;;3.30;99.90;;;;;;4978339;28;88021;-76
2022/12/15 12:16:47;;;;;;;13.45;9.15;;;3.40;99.90;;;;;;4974684;28;90277;-76
2022/12/15 12:19:40;;;;;;;12.23;8.98;;;3.30;99.90;;;;;;4975394;28;87633;-77
2022/12/15 12:24:02;;;;;;;13.43;8.98;;;3.40;99.90;;;;;;5032535;27;87798;-76
2022/12/15 12:26:51;;;;;;;13.90;9.48;;;3.40;99.90;;;;;;5034683;27;87727;-76
2022/12/15 12:29:24;;;;;;;16.77;11.95;;;3.40;99.90;;;;;;5034024;28;88202;-76
2022/12/15 12:31:56;;;;;;;13.05;9.35;;;3.50;99.90;;;;;;5033759;28;88474;-76
2022/12/15 12:35:03;;;;;;;16.38;11.95;;;3.40;99.90;;;;;;5035380;27;87951;-76
2022/12/15 12:37:55;;;;;;;12.70;9.35;;;3.50;99.90;;;;;;5033725;27;89345;-76
2022/12/15 12:40:54;;;;;;;12.80;8.45;;;3.50;99.90;;;;;;5034836;27;89010;-77
2022/12/15 12:43:38;;;;;;;17.65;9.10;;;3.60;99.90;;;;;;5050643;27;91185;-77
2022/12/15 12:46:19;;;;;;;14.00;9.53;;;3.50;99.90;;;;;;5033215;28;91140;-77
2022/12/15 12:49:04;;;;;;;14.43;8.95;;;3.60;99.90;;;;;;5033230;28;87677;-77
2022/12/15 12:51:39;;;;;;;13.95;9.65;;;3.60;99.90;;;;;;5016783;28;89613;-77
2022/12/15 12:54:35;;;;;;;12.27;8.98;;;3.60;99.90;;;;;;5033583;28;87998;-77
2022/12/15 12:57:27;;;;;;;19.90;12.80;;;3.60;99.90;;;;;;5031031;28;89603;-77
2022/12/15 13:00:07;;;;;;;9.50;8.20;;;3.70;99.90;;;;;;5033699;27;89487;-77
2022/12/15 13:02:36;;;;;;;12.60;8.88;;;3.70;99.90;;;;;;5033126;28;91835;-77
2022/12/15 13:05:24;;;;;;;12.18;8.52;;;3.60;99.90;;;;;;5016201;28;91233;-77
2022/12/15 13:07:55;;;;;;;13.23;9.35;;;3.70;99.90;;;;;;5033139;27;91080;-75
2022/12/15 13:10:24;;;;;;;15.43;10.68;;;3.70;99.90;;;;;;5033290;28;87463;-75
2022/12/15 13:12:52;;;;;;;15.05;10.07;;;3.70;99.90;;;;;;5014969;28;89322;-75
2022/12/15 13:15:26;;;;;;;18.70;10.32;;;3.70;99.90;;;;;;5031909;28;90109;-76
2022/12/15 13:18:07;;;;;;;17.83;10.60;;;3.80;99.90;;;;;;5031587;28;88940;-75
2022/12/15 13:20:36;;;;;;;16.73;10.98;;;3.80;99.90;;;;;;5031734;28;92595;-76
2022/12/15 13:23:32;;;;;;;16.23;10.13;;;3.80;99.90;;;;;;5032494;27;89310;-75
2022/12/15 13:26:00;;;;;;;16.30;12.23;;;3.80;99.90;;;;;;5015109;28;90615;-76
2022/12/15 13:28:38;;;;;;;33.17;21.20;;;3.80;99.90;;;;;;5033345;27;88846;-76
2022/12/15 13:31:12;;;;;;;20.95;10.73;;;3.80;99.90;;;;;;5032810;28;89522;-76
2022/12/15 13:34:10;;;;;;;17.13;11.65;;;3.80;99.90;;;;;;5018494;28;88954;-76
2022/12/15 13:36:53;;;;;;;17.85;11.68;;;3.80;99.90;;;;;;5016405;28;88534;-76
2022/12/15 13:39:21;;;;;;;21.08;13.70;;;3.80;99.90;;;;;;5018188;28;88460;-76
2022/12/15 13:41:51;;;;;;;25.77;16.95;;;3.70;99.90;;;;;;5019311;28;89343;-76
2022/12/15 13:44:43;;;;;;;22.50;15.73;;;3.70;99.90;;;;;;5019514;28;88984;-76
2022/12/15 13:47:27;;;;;;;21.20;15.32;;;3.60;99.90;;;;;;5019364;28;88586;-76
2022/12/15 13:50:05;;;;;;;16.73;12.82;;;3.60;99.90;;;;;;5019329;28;88536;-76
2022/12/15 13:52:40;;;;;;;17.75;12.05;;;3.60;99.90;;;;;;5019451;28;89505;-76
2022/12/15 13:55:37;;;;;;;16.70;11.38;;;3.50;99.90;;;;;;5019176;28;88478;-76
2022/12/15 13:58:14;;;;;;;16.35;12.95;;;3.50;99.90;;;;;;5001219;28;91088;-76
2022/12/15 14:00:57;;;;;;;16.23;11.95;;;3.50;99.90;;;;;;5019388;28;88830;-76
2022/12/15 14:03:24;;;;;;;16.92;12.70;;;3.50;99.90;;;;;;5019355;28;88358;-76
2022/12/15 14:05:53;;;;;;;16.45;12.18;;;3.40;99.90;;;;;;5017853;28;88546;-76
2022/12/15 14:08:22;;;;;;;18.10;13.00;;;3.40;99.90;;;;;;5017828;28;88558;-76
2022/12/15 14:10:54;;;;;;;20.20;13.07;;;3.40;99.90;;;;;;5001172;28;90452;-76
2022/12/15 14:13:28;;;;;;;17.60;12.77;;;3.40;99.90;;;;;;5018989;28;88477;-76
2022/12/15 14:16:14;;;;;;;21.25;13.30;;;3.30;99.90;;;;;;5019056;28;88914;-76
2022/12/15 14:18:41;;;;;;;20.55;13.35;;;3.30;99.90;;;;;;5019103;28;88678;-76
2022/12/15 14:21:25;;;;;;;21.05;13.10;;;3.20;99.90;;;;;;5017505;28;88480;-76
2022/12/15 14:23:54;;;;;;;15.43;13.32;;;3.20;99.90;;;;;;5018957;28;88424;-76
2022/12/15 14:26:41;;;;;;;20.58;13.10;;;3.10;99.90;;;;;;5012275;28;89025;-76
2022/12/15 14:29:09;;;;;;;22.27;15.23;;;3.10;99.90;;;;;;4984438;28;91153;-76
2022/12/15 14:31:36;;;;;;;20.35;14.57;;;3.00;99.90;;;;;;4980819;28;90807;-76
2022/12/15 14:34:22;;;;;;;20.10;14.38;;;3.00;99.90;;;;;;4997293;28;89590;-76
2022/12/15 14:36:50;;;;;;;21.50;15.20;;;3.00;99.90;;;;;;4998941;28;88975;-76
2022/12/15 14:39:41;;;;;;;21.48;14.45;;;2.90;99.90;;;;;;4996672;28;92232;-76
2022/12/15 14:42:22;;;;;;;24.42;15.15;;;2.90;99.90;;;;;;4998575;28;88450;-76
2022/12/15 14:44:50;;;;;;;18.70;15.18;;;2.80;99.90;;;;;;4997583;28;88528;-77
2022/12/15 14:47:27;;;;;;;21.67;15.82;;;2.70;99.90;;;;;;4997159;28;89129;-76
2022/12/15 14:49:56;;;;;;;22.50;15.85;;;2.70;99.90;;;;;;4998737;28;88466;-76
2022/12/15 14:52:38;;;;;;;22.00;15.75;;;2.60;99.90;;;;;;4980733;28;90748;-76
2022/12/15 14:55:32;;;;;;;21.33;15.75;;;2.60;99.90;;;;;;4997217;28;89571;-76
2022/12/15 14:58:00;;;;;;;22.17;15.73;;;2.50;99.90;;;;;;4980288;28;91657;-76
2022/12/15 15:00:33;;;;;;;23.10;16.38;;;2.40;99.90;;;;;;4997098;28;88542;-76
2022/12/15 15:03:20;;;;;;;25.13;17.17;;;2.30;99.90;;;;;;4996965;28;90652;-77
2022/12/15 15:06:04;;;;;;;27.98;20.38;;;2.30;99.90;;;;;;4996856;28;92199;-76
2022/12/15 15:08:51;;;;;;;24.35;17.13;;;2.20;99.90;;;;;;4998340;28;89089;-76
2022/12/15 15:11:34;;;;;;;30.27;21.02;;;2.10;99.90;;;;;;4980145;28;91250;-76
2022/12/15 15:14:15;;;;;;;31.05;23.13;;;2.00;99.90;;;;;;4998427;28;88425;-77
2022/12/15 15:16:43;;;;;;;48.58;30.38;;;1.90;99.90;;;;;;4996998;28;89814;-76
2022/12/15 15:19:20;;;;;;;22.90;17.73;;;1.90;99.90;;;;;;4980250;28;88989;-76
2022/12/15 15:21:47;;;;;;;33.28;21.90;;;1.80;99.90;;;;;;4998030;28;89016;-76
2022/12/15 15:24:14;;;;;;;31.60;22.23;;;1.80;99.90;;;;;;4997888;28;88624;-76
2022/12/15 15:26:42;;;;;;;27.60;21.55;;;1.70;99.90;;;;;;4996321;28;91801;-76
2022/12/15 15:29:47;;;;;;;32.17;22.00;;;1.70;99.90;;;;;;4996191;28;92980;-76
2022/12/15 15:32:23;;;;;;;29.88;18.85;;;1.70;99.90;;;;;;4955981;28;88635;-76
2022/12/15 15:34:51;;;;;;;31.60;20.98;;;1.60;99.90;;;;;;4923520;28;90970;-76